Terminal Aerodrome Forecast
Issued by NWS

Home | Current Version | Previous Version | Text Only | Print | Product List | Glossary Off
Versions: 1 2 3 4 5 6 7 8 9 10 11 12 13 14 15 16

000
FTUS42 KMHX 251148
TAFOAJ
TAF
KOAJ 251148Z 2512/2612 01007KT P6SM OVC009
     FM251400 03010KT P6SM BKN015
     FM252000 03010KT P6SM BKN025
     FM260400 02007KT P6SM VCSH BKN010
      AMD LTD TO CLD VIS AND WIND=

USA.gov is the U.S. government's official web portal to all federal, state and local government web resources and services.